createdAt,value
2017-12-29T00:00:57.737Z,5.90
2017-12-29T00:03:09.220Z,5.62
2017-12-29T00:04:11.740Z,5.70
2017-12-29T00:05:14.295Z,5.72
2017-12-29T00:06:16.808Z,6.05
2017-12-29T00:07:19.329Z,6.12
2017-12-29T00:08:21.832Z,5.72
2017-12-29T00:09:24.357Z,6.28
2017-12-29T00:10:26.903Z,5.72
2017-12-29T00:11:30.232Z,5.85
2017-12-29T00:12:32.744Z,6.28
2017-12-29T00:13:35.256Z,5.95
2017-12-29T00:14:37.778Z,5.22
2017-12-29T00:15:40.301Z,6.55
2017-12-29T00:16:42.854Z,5.65
2017-12-29T00:17:45.357Z,5.28
2017-12-29T00:18:47.872Z,6.00
2017-12-29T00:19:50.420Z,5.55
2017-12-29T00:20:53.696Z,5.50
2017-12-29T00:21:56.988Z,4.72
2017-12-29T00:23:00.445Z,6.07
2017-12-29T00:24:02.951Z,6.10
2017-12-29T00:25:06.264Z,5.87
2017-12-29T00:26:08.817Z,5.60
2017-12-29T00:27:11.324Z,5.32
2017-12-29T00:28:13.857Z,5.75
2017-12-29T00:29:16.372Z,5.10
2017-12-29T00:30:18.894Z,5.10
2017-12-29T00:31:21.466Z,5.85
2017-12-29T00:32:23.976Z,5.55
2017-12-29T00:33:26.489Z,5.22
2017-12-29T00:34:29.010Z,5.60
2017-12-29T00:35:31.528Z,6.70
2017-12-29T00:36:34.078Z,5.87
2017-12-29T00:37:36.586Z,5.03
2017-12-29T00:38:39.120Z,5.90
2017-12-29T00:39:41.639Z,6.00
2017-12-29T00:40:44.197Z,5.03
2017-12-29T00:41:46.710Z,5.12
2017-12-29T00:42:49.220Z,5.93
2017-12-29T00:43:51.782Z,5.72
2017-12-29T00:44:54.333Z,5.35
2017-12-29T00:45:56.846Z,5.12
2017-12-29T00:47:00.162Z,5.97
2017-12-29T00:48:02.671Z,5.60
2017-12-29T00:49:05.237Z,5.40
2017-12-29T00:50:07.758Z,5.68
2017-12-29T00:51:10.278Z,5.78
2017-12-29T00:52:12.793Z,5.80
2017-12-29T00:53:15.320Z,5.95
2017-12-29T00:54:18.632Z,5.60
2017-12-29T00:55:21.147Z,5.28
2017-12-29T00:56:23.660Z,6.18
2017-12-29T00:57:26.192Z,6.07
2017-12-29T00:58:28.696Z,5.30
2017-12-29T00:59:31.240Z,6.30
2017-12-29T01:00:34.525Z,5.80
2017-12-29T01:01:37.800Z,5.97
2017-12-29T01:02:41.215Z,5.80
2017-12-29T01:03:43.773Z,5.65
2017-12-29T01:04:46.289Z,5.45
2017-12-29T01:05:48.804Z,5.93
2017-12-29T01:06:51.315Z,5.18
2017-12-29T01:07:53.828Z,6.00
2017-12-29T01:08:56.512Z,5.30
2017-12-29T01:09:59.022Z,5.90
2017-12-29T01:11:01.534Z,5.57
2017-12-29T01:12:04.063Z,5.80
2017-12-29T01:13:06.565Z,4.72
2017-12-29T01:14:09.107Z,5.40
2017-12-29T01:15:12.384Z,5.30
2017-12-29T01:16:14.896Z,6.18
2017-12-29T01:17:17.413Z,5.40
2017-12-29T01:18:19.929Z,5.20
2017-12-29T01:19:22.468Z,5.20
2017-12-29T01:20:25.752Z,6.22
2017-12-29T01:21:29.028Z,4.85
2017-12-29T01:22:32.335Z,5.87
2017-12-29T01:23:34.857Z,5.50
2017-12-29T01:24:37.417Z,5.57
2017-12-29T01:25:40.038Z,5.90
2017-12-29T01:26:42.558Z,5.97
2017-12-29T01:27:45.076Z,5.40
2017-12-29T01:28:47.580Z,5.50
2017-12-29T01:29:50.153Z,4.70
2017-12-29T01:30:52.665Z,4.80
2017-12-29T01:31:55.172Z,5.55
2017-12-29T01:32:57.683Z,5.22
2017-12-29T01:34:00.982Z,5.85
2017-12-29T01:35:03.524Z,5.80
2017-12-29T01:36:06.807Z,5.53
2017-12-29T01:37:10.092Z,6.18
2017-12-29T01:38:13.377Z,6.10
2017-12-29T01:39:17.833Z,5.78
2017-12-29T01:40:20.353Z,5.82
2017-12-29T01:41:23.645Z,6.30
2017-12-29T01:42:26.196Z,6.65
2017-12-29T01:43:29.464Z,6.12
2017-12-29T01:44:32.076Z,5.75
2017-12-29T01:45:34.590Z,6.55
2017-12-29T01:46:37.099Z,6.05
2017-12-29T01:47:51.437Z,5.90
2017-12-29T01:48:53.957Z,6.62
2017-12-29T01:49:56.510Z,6.90
2017-12-29T01:50:59.030Z,6.00
2017-12-29T01:52:02.332Z,6.15
2017-12-29T01:53:04.897Z,7.03
2017-12-29T01:54:07.417Z,6.60
2017-12-29T01:55:09.933Z,5.97
2017-12-29T01:56:12.440Z,6.70
2017-12-29T01:57:14.951Z,6.40
2017-12-29T01:58:17.500Z,6.82
2017-12-29T01:59:20.777Z,5.15
2017-12-29T02:00:24.056Z,5.53
2017-12-29T02:01:26.578Z,6.30
2017-12-29T02:02:29.092Z,6.00
2017-12-29T02:03:32.405Z,6.60
2017-12-29T02:04:34.953Z,5.93
2017-12-29T02:05:38.238Z,5.90
2017-12-29T02:06:41.520Z,6.00
2017-12-29T02:07:44.809Z,5.80
2017-12-29T02:08:48.088Z,5.80
2017-12-29T02:09:51.401Z,6.12
2017-12-29T02:10:53.908Z,6.30
2017-12-29T02:11:56.432Z,5.75
2017-12-29T02:12:58.992Z,6.20
2017-12-29T02:14:01.501Z,6.25
2017-12-29T02:15:04.061Z,5.93
2017-12-29T02:16:06.575Z,6.57
2017-12-29T02:17:09.856Z,6.18
2017-12-29T02:18:13.139Z,6.70
2017-12-29T02:19:16.421Z,6.00
2017-12-29T02:20:19.754Z,6.57
2017-12-29T02:21:22.264Z,6.40
2017-12-29T02:22:25.549Z,6.35
2017-12-29T02:23:28.830Z,6.47
2017-12-29T02:24:32.112Z,6.20
2017-12-29T02:25:35.427Z,7.82
2017-12-29T02:26:37.944Z,6.12
2017-12-29T02:27:40.464Z,6.20
2017-12-29T02:28:42.986Z,5.62
2017-12-29T02:29:45.492Z,6.28
2017-12-29T02:30:48.042Z,5.45
2017-12-29T02:31:50.566Z,5.80
2017-12-29T02:32:53.241Z,6.40
2017-12-29T02:33:55.764Z,5.22
2017-12-29T02:34:58.276Z,5.97
2017-12-29T02:36:00.830Z,6.50
2017-12-29T02:37:03.405Z,6.37
2017-12-29T02:38:06.022Z,6.20
2017-12-29T02:39:08.612Z,6.53
2017-12-29T02:40:11.185Z,5.80
2017-12-29T02:41:13.720Z,6.70
2017-12-29T02:42:16.253Z,6.32
2017-12-29T02:43:19.533Z,6.10
2017-12-29T02:44:22.049Z,6.53
2017-12-29T02:45:24.585Z,6.18
2017-12-29T02:46:27.889Z,5.90
2017-12-29T02:47:30.413Z,5.47
2017-12-29T02:48:32.960Z,6.03
2017-12-29T02:49:35.469Z,5.70
2017-12-29T02:50:38.017Z,5.87
2017-12-29T02:51:41.313Z,6.20
2017-12-29T02:52:44.597Z,4.87
2017-12-29T02:53:47.872Z,6.30
2017-12-29T02:54:51.144Z,5.60
2017-12-29T02:55:54.553Z,5.90
2017-12-29T02:56:57.829Z,6.22
2017-12-29T02:58:01.109Z,5.78
2017-12-29T02:59:04.550Z,6.40
2017-12-29T03:00:07.064Z,5.60
2017-12-29T03:01:10.388Z,6.25
2017-12-29T03:02:12.892Z,6.32
2017-12-29T03:03:15.409Z,5.62
2017-12-29T03:04:17.920Z,6.60
2017-12-29T03:05:20.440Z,6.70
2017-12-29T03:06:22.988Z,6.45
2017-12-29T03:07:26.269Z,6.18
2017-12-29T03:08:29.544Z,5.75
2017-12-29T03:09:32.835Z,6.60
2017-12-29T03:10:36.116Z,6.30
2017-12-29T03:11:39.431Z,6.50
2017-12-29T03:12:41.945Z,6.43
2017-12-29T03:13:44.473Z,5.93
2017-12-29T03:14:46.980Z,6.35
2017-12-29T03:15:49.533Z,6.05
2017-12-29T03:16:52.041Z,5.75
2017-12-29T03:17:54.590Z,6.37
2017-12-29T03:18:57.863Z,7.30
2017-12-29T03:20:00.377Z,6.35
2017-12-29T03:22:11.853Z,6.30
2017-12-29T03:23:14.404Z,6.35
2017-12-29T03:24:16.924Z,6.43
2017-12-29T03:25:19.437Z,5.78
2017-12-29T03:26:21.939Z,6.15
2017-12-29T03:27:24.452Z,6.40
2017-12-29T03:28:27.773Z,5.78
2017-12-29T03:29:30.279Z,5.97
2017-12-29T03:30:32.794Z,6.75
2017-12-29T03:31:35.308Z,6.72
2017-12-29T03:32:37.822Z,7.53
2017-12-29T03:33:40.388Z,5.53
2017-12-29T03:34:42.901Z,6.35
2017-12-29T03:35:45.426Z,6.78
2017-12-29T03:36:47.937Z,6.07
2017-12-29T03:37:50.453Z,6.60
2017-12-29T03:38:53.002Z,5.97
2017-12-29T03:39:56.277Z,6.60
2017-12-29T03:40:59.563Z,6.68
2017-12-29T03:42:02.092Z,6.05
2017-12-29T03:43:04.638Z,5.82
2017-12-29T03:44:07.157Z,6.20
2017-12-29T03:45:10.440Z,6.18
2017-12-29T03:46:13.724Z,5.65
2017-12-29T03:47:17.036Z,6.05
2017-12-29T03:48:19.590Z,6.50
2017-12-29T03:49:22.108Z,7.20
2017-12-29T03:50:24.628Z,6.10
2017-12-29T03:51:27.153Z,7.30
2017-12-29T03:52:29.663Z,6.25
2017-12-29T03:53:32.210Z,5.55
2017-12-29T03:54:35.524Z,6.25
2017-12-29T03:55:38.047Z,7.75
2017-12-29T03:56:41.327Z,6.82
2017-12-29T03:57:43.849Z,6.97
2017-12-29T03:58:46.409Z,7.20
2017-12-29T03:59:48.926Z,5.93
2017-12-29T04:00:51.528Z,6.40
2017-12-29T04:01:54.045Z,6.60
2017-12-29T04:02:56.559Z,5.65
2017-12-29T04:03:59.109Z,6.43
2017-12-29T04:05:02.430Z,6.03
2017-12-29T04:06:04.945Z,5.82
2017-12-29T04:07:08.377Z,5.93
2017-12-29T04:08:10.892Z,6.03
2017-12-29T04:09:13.510Z,6.30
2017-12-29T04:10:16.052Z,6.57
2017-12-29T04:11:18.601Z,6.35
2017-12-29T04:12:21.881Z,6.40
2017-12-29T04:13:25.173Z,6.65
2017-12-29T04:14:28.478Z,6.82
2017-12-29T04:15:30.987Z,5.95
2017-12-29T04:16:33.532Z,6.95
2017-12-29T04:18:44.880Z,6.00
2017-12-29T04:19:47.407Z,6.80
2017-12-29T04:20:49.921Z,6.20
2017-12-29T04:21:52.478Z,6.30
2017-12-29T04:22:54.990Z,5.60
2017-12-29T04:23:57.504Z,7.18
2017-12-29T04:25:00.783Z,5.55
2017-12-29T04:26:04.085Z,6.05
2017-12-29T04:27:06.629Z,6.05
2017-12-29T04:28:09.908Z,6.28
2017-12-29T04:29:13.194Z,6.05
2017-12-29T04:30:16.479Z,6.07
2017-12-29T04:31:19.761Z,6.65
2017-12-29T04:32:23.072Z,5.30
2017-12-29T04:33:25.580Z,6.32
2017-12-29T04:34:28.090Z,5.62
2017-12-29T04:35:30.604Z,5.55
2017-12-29T04:36:33.121Z,5.43
2017-12-29T04:37:35.698Z,5.20
2017-12-29T04:38:38.209Z,5.28
2017-12-29T04:39:40.715Z,5.10
2017-12-29T04:40:44.024Z,5.45
2017-12-29T04:41:46.564Z,5.55
2017-12-29T04:42:49.848Z,4.95
2017-12-29T04:43:53.132Z,5.30
2017-12-29T04:44:56.409Z,5.03
2017-12-29T04:45:59.696Z,5.12
2017-12-29T04:47:03.005Z,5.15
2017-12-29T04:48:05.521Z,5.18
2017-12-29T04:49:08.039Z,5.32
2017-12-29T04:50:10.617Z,6.03
2017-12-29T04:51:13.112Z,5.87
2017-12-29T04:52:15.676Z,5.85
2017-12-29T04:53:18.184Z,5.10
2017-12-29T04:54:20.701Z,5.72
2017-12-29T04:55:23.213Z,5.53
2017-12-29T04:56:25.736Z,5.18
2017-12-29T04:57:29.428Z,4.95
2017-12-29T04:58:31.989Z,5.70
2017-12-29T04:59:34.505Z,5.05
2017-12-29T05:00:37.021Z,5.10
2017-12-29T05:01:39.536Z,5.53
2017-12-29T05:02:42.053Z,5.37
2017-12-29T05:03:44.601Z,5.72
2017-12-29T05:04:47.152Z,4.78
2017-12-29T05:05:49.661Z,5.32
2017-12-29T05:06:52.172Z,5.37
2017-12-29T05:07:54.690Z,6.60
2017-12-29T05:08:57.200Z,5.40
2017-12-29T05:09:59.761Z,6.03
2017-12-29T05:11:02.548Z,5.30
2017-12-29T05:12:05.101Z,5.30
2017-12-29T05:13:08.369Z,5.32
2017-12-29T05:14:11.649Z,5.85
2017-12-29T05:15:14.970Z,5.15
2017-12-29T05:16:17.489Z,4.93
2017-12-29T05:17:20.002Z,5.05
2017-12-29T05:18:22.517Z,5.82
2017-12-29T05:19:25.029Z,5.32
2017-12-29T05:20:28.140Z,4.90
2017-12-29T05:21:30.649Z,5.05
2017-12-29T05:22:33.936Z,4.82
2017-12-29T05:23:37.248Z,4.90
2017-12-29T05:24:39.760Z,5.43
2017-12-29T05:25:42.277Z,5.28
2017-12-29T05:26:44.840Z,5.53
2017-12-29T05:27:47.349Z,5.72
2017-12-29T05:28:49.895Z,5.43
2017-12-29T05:29:52.409Z,5.47
2017-12-29T05:30:55.716Z,4.53
2017-12-29T05:31:58.228Z,5.45
2017-12-29T05:33:00.742Z,5.40
2017-12-29T05:34:03.264Z,5.50
2017-12-29T05:35:05.825Z,4.93
2017-12-29T05:36:08.341Z,4.65
2017-12-29T05:37:10.856Z,5.40
2017-12-29T05:38:13.365Z,4.80
2017-12-29T05:39:15.877Z,4.78
2017-12-29T05:40:18.445Z,4.70
2017-12-29T05:41:20.950Z,4.10
2017-12-29T05:42:24.244Z,5.12
2017-12-29T05:43:27.520Z,4.70
2017-12-29T05:44:30.804Z,5.07
2017-12-29T05:45:34.132Z,4.87
2017-12-29T05:46:36.651Z,5.30
2017-12-29T05:47:39.953Z,4.50
2017-12-29T05:48:42.464Z,5.00
2017-12-29T05:49:44.983Z,4.80
2017-12-29T05:50:47.540Z,4.40
2017-12-29T05:51:50.086Z,4.78
2017-12-29T05:52:52.606Z,4.40
2017-12-29T05:53:55.116Z,4.68
2017-12-29T05:54:57.637Z,4.32
2017-12-29T05:56:00.187Z,4.85
2017-12-29T05:57:02.728Z,5.03
2017-12-29T05:58:05.237Z,4.68
2017-12-29T05:59:07.747Z,4.55
2017-12-29T06:00:10.259Z,4.40
2017-12-29T06:01:12.800Z,4.40
2017-12-29T06:02:16.124Z,4.53
2017-12-29T06:03:18.643Z,4.18
2017-12-29T06:04:22.023Z,4.60
2017-12-29T06:05:25.297Z,4.78
2017-12-29T06:06:27.808Z,4.80
2017-12-29T06:07:30.380Z,4.70
2017-12-29T06:08:32.902Z,5.37
2017-12-29T06:09:36.176Z,4.68
2017-12-29T06:10:38.693Z,4.75
2017-12-29T06:11:41.204Z,5.80
2017-12-29T06:12:43.753Z,4.40
2017-12-29T06:13:46.279Z,4.15
2017-12-29T06:14:48.793Z,4.80
2017-12-29T06:15:51.305Z,4.20
2017-12-29T06:16:53.821Z,5.50
2017-12-29T06:17:56.368Z,8.35
2017-12-29T06:18:58.917Z,7.45
2017-12-29T06:20:01.433Z,5.57
2017-12-29T06:21:03.951Z,5.22
2017-12-29T06:22:06.465Z,5.45
2017-12-29T06:23:09.022Z,5.25
2017-12-29T06:24:11.540Z,5.85
2017-12-29T06:25:14.059Z,5.50
2017-12-29T06:26:16.571Z,5.25
2017-12-29T06:27:19.084Z,5.30
2017-12-29T06:28:21.640Z,5.28
2017-12-29T06:29:24.157Z,5.10
2017-12-29T06:30:26.737Z,6.55
2017-12-29T06:31:29.292Z,4.78
2017-12-29T06:32:31.828Z,6.30
2017-12-29T06:33:34.434Z,7.80
2017-12-29T06:34:36.949Z,6.03
2017-12-29T06:35:39.570Z,4.80
2017-12-29T06:36:42.236Z,5.80
2017-12-29T06:37:44.745Z,5.25
2017-12-29T06:38:47.260Z,5.93
2017-12-29T06:39:49.763Z,4.97
2017-12-29T06:40:52.272Z,6.72
2017-12-29T06:41:55.594Z,5.40
2017-12-29T06:42:58.145Z,5.87
2017-12-29T06:44:00.656Z,6.20
2017-12-29T06:45:03.176Z,5.85
2017-12-29T06:46:05.693Z,5.97
2017-12-29T06:47:08.211Z,7.30
2017-12-29T06:48:10.756Z,5.85
2017-12-29T06:49:14.034Z,5.43
2017-12-29T06:50:17.317Z,6.68
2017-12-29T06:51:20.597Z,4.93
2017-12-29T06:52:23.882Z,10.88
2017-12-29T06:53:27.206Z,6.32
2017-12-29T06:54:29.781Z,5.30
2017-12-29T06:55:32.419Z,4.70
2017-12-29T06:56:34.949Z,5.32
2017-12-29T06:57:37.463Z,6.25
2017-12-29T06:58:39.982Z,5.07
2017-12-29T06:59:42.548Z,5.55
2017-12-29T07:00:45.056Z,4.45
2017-12-29T07:01:47.566Z,4.53
2017-12-29T07:02:50.082Z,4.15
2017-12-29T07:03:52.632Z,5.20
2017-12-29T07:04:55.920Z,5.15
2017-12-29T07:05:59.201Z,4.90
2017-12-29T07:07:02.483Z,4.70
2017-12-29T07:08:05.769Z,4.70
2017-12-29T07:09:09.090Z,4.30
2017-12-29T07:10:11.597Z,4.45
2017-12-29T07:11:14.113Z,4.32
2017-12-29T07:12:16.621Z,5.32
2017-12-29T07:13:19.141Z,4.72
2017-12-29T07:14:21.701Z,4.87
2017-12-29T07:15:24.309Z,5.10
2017-12-29T07:16:26.828Z,4.65
2017-12-29T07:17:29.346Z,4.85
2017-12-29T07:18:31.895Z,4.03
2017-12-29T07:19:34.409Z,4.43
2017-12-29T07:20:37.714Z,4.43
2017-12-29T07:21:40.236Z,5.05
2017-12-29T07:22:42.771Z,4.05
2017-12-29T07:23:45.356Z,4.72
2017-12-29T07:24:47.926Z,4.30
2017-12-29T07:25:51.196Z,4.70
2017-12-29T07:26:53.715Z,4.15
2017-12-29T07:27:56.990Z,4.82
2017-12-29T07:29:00.266Z,4.00
2017-12-29T07:30:02.813Z,4.10
2017-12-29T07:31:05.321Z,4.65
2017-12-29T07:32:07.824Z,4.32
2017-12-29T07:33:10.368Z,3.92
2017-12-29T07:34:12.887Z,4.12
2017-12-29T07:35:15.495Z,4.43
2017-12-29T07:36:18.006Z,4.80
2017-12-29T07:37:20.531Z,4.50
2017-12-29T07:38:23.072Z,4.32
2017-12-29T07:39:26.352Z,4.15
2017-12-29T07:40:29.632Z,4.93
2017-12-29T07:41:32.954Z,4.43
2017-12-29T07:42:35.465Z,4.18
2017-12-29T07:43:37.974Z,4.03
2017-12-29T07:44:40.485Z,3.78
2017-12-29T07:45:43.004Z,4.72
2017-12-29T07:46:45.552Z,4.00
2017-12-29T07:47:48.827Z,4.60
2017-12-29T07:48:52.146Z,3.70
2017-12-29T07:49:54.656Z,4.30
2017-12-29T07:50:57.168Z,3.97
2017-12-29T07:51:59.720Z,4.18
2017-12-29T07:53:02.997Z,4.03
2017-12-29T07:54:06.308Z,4.18
2017-12-29T07:55:08.820Z,4.30
2017-12-29T07:56:11.343Z,4.00
2017-12-29T07:57:13.854Z,3.90
2017-12-29T07:58:16.365Z,4.60
2017-12-29T08:00:27.836Z,4.18
2017-12-29T08:01:31.119Z,3.37
2017-12-29T08:02:34.396Z,4.03
2017-12-29T08:03:37.675Z,3.70
2017-12-29T08:04:41.089Z,4.15
2017-12-29T08:05:43.608Z,4.20
2017-12-29T08:06:46.112Z,3.60
2017-12-29T08:07:48.628Z,4.32
2017-12-29T08:08:51.136Z,4.75
2017-12-29T08:09:53.690Z,3.60
2017-12-29T08:10:57.103Z,3.58
2017-12-29T08:11:59.643Z,3.62
2017-12-29T08:13:02.916Z,3.78
2017-12-29T08:14:05.433Z,3.50
2017-12-29T08:15:07.958Z,3.50
2017-12-29T08:16:11.265Z,3.70
2017-12-29T08:17:13.786Z,3.95
2017-12-29T08:18:16.298Z,3.67
2017-12-29T08:19:18.809Z,3.62
2017-12-29T08:20:21.316Z,3.22
2017-12-29T08:21:24.630Z,3.20
2017-12-29T08:22:27.186Z,3.30
2017-12-29T08:23:29.696Z,3.28
2017-12-29T08:24:32.205Z,2.70
2017-12-29T08:25:34.712Z,3.58
2017-12-29T08:26:37.253Z,3.83
2017-12-29T08:27:39.768Z,3.33
2017-12-29T08:28:42.276Z,3.28
2017-12-29T08:29:44.793Z,3.70
2017-12-29T08:30:47.308Z,3.50
2017-12-29T08:31:49.948Z,3.85
2017-12-29T08:32:53.224Z,3.40
2017-12-29T08:33:55.733Z,4.00
2017-12-29T08:34:58.310Z,3.95
2017-12-29T08:36:00.825Z,3.08
2017-12-29T08:37:04.137Z,3.08
2017-12-29T08:38:06.659Z,3.35
2017-12-29T08:39:09.192Z,2.87
2017-12-29T08:40:11.718Z,4.03
2017-12-29T08:41:14.993Z,3.45
2017-12-29T08:42:18.297Z,3.22
2017-12-29T08:43:20.813Z,3.50
2017-12-29T08:44:23.334Z,3.30
2017-12-29T08:45:25.871Z,2.83
2017-12-29T08:46:28.393Z,3.45
2017-12-29T08:47:30.899Z,3.30
2017-12-29T08:48:34.173Z,3.45
2017-12-29T08:49:36.698Z,3.12
2017-12-29T08:50:39.234Z,3.28
2017-12-29T08:51:42.530Z,2.85
2017-12-29T08:52:45.052Z,3.30
2017-12-29T08:53:47.563Z,3.70
2017-12-29T08:54:50.108Z,3.12
2017-12-29T08:55:53.419Z,2.78
2017-12-29T08:56:55.936Z,3.40
2017-12-29T08:57:58.452Z,2.05
2017-12-29T08:59:00.966Z,2.97
2017-12-29T09:00:03.537Z,3.20
2017-12-29T09:01:06.060Z,3.17
2017-12-29T09:02:08.582Z,3.17
2017-12-29T09:03:11.893Z,3.28
2017-12-29T09:04:14.411Z,3.00
2017-12-29T09:05:16.970Z,2.40
2017-12-29T09:06:19.489Z,2.95
2017-12-29T09:07:22.005Z,2.60
2017-12-29T09:08:24.512Z,2.10
2017-12-29T09:09:27.022Z,3.55
2017-12-29T09:10:29.576Z,2.60
2017-12-29T09:11:32.081Z,2.95
2017-12-29T09:12:35.376Z,2.47
2017-12-29T09:13:38.652Z,2.72
2017-12-29T09:14:41.165Z,3.05
2017-12-29T09:15:43.716Z,2.42
2017-12-29T09:16:46.285Z,2.92
2017-12-29T09:17:48.842Z,2.85
2017-12-29T09:18:51.357Z,2.87
2017-12-29T09:19:53.860Z,2.60
2017-12-29T09:20:57.148Z,3.25
2017-12-29T09:22:00.468Z,2.50
2017-12-29T09:23:03.801Z,3.10
2017-12-29T09:24:06.315Z,3.03
2017-12-29T09:25:08.833Z,1.65
2017-12-29T09:26:12.146Z,2.60
2017-12-29T09:27:14.785Z,2.45
2017-12-29T09:28:18.109Z,2.12
2017-12-29T09:29:20.757Z,2.58
2017-12-29T09:30:24.056Z,2.75
2017-12-29T09:31:26.566Z,3.20
2017-12-29T09:32:29.084Z,2.35
2017-12-29T09:33:31.632Z,2.75
2017-12-29T09:34:34.916Z,2.45
2017-12-29T09:35:38.192Z,2.87
2017-12-29T09:36:41.472Z,3.37
2017-12-29T09:37:44.789Z,3.00
2017-12-29T09:38:47.305Z,2.28
2017-12-29T09:39:49.813Z,2.65
2017-12-29T09:40:52.321Z,2.33
2017-12-29T09:41:54.832Z,2.75
2017-12-29T09:42:58.166Z,3.22
2017-12-29T09:44:00.680Z,2.35
2017-12-29T09:45:03.979Z,2.40
2017-12-29T09:46:06.492Z,3.92
2017-12-29T09:47:09.004Z,2.65
2017-12-29T09:48:11.582Z,3.30
2017-12-29T09:49:14.132Z,2.92
2017-12-29T09:50:17.417Z,3.60
2017-12-29T09:51:19.935Z,3.40
2017-12-29T09:52:22.448Z,2.92
2017-12-29T09:53:25.732Z,1.92
2017-12-29T09:54:29.052Z,3.22
2017-12-29T09:55:31.584Z,2.45
2017-12-29T09:56:34.104Z,3.53
2017-12-29T09:57:36.625Z,2.60
2017-12-29T09:58:39.145Z,2.40
2017-12-29T09:59:41.702Z,1.90
2017-12-29T10:00:44.220Z,2.20
2017-12-29T10:01:46.742Z,2.70
2017-12-29T10:02:49.265Z,2.70
2017-12-29T10:03:51.787Z,2.40
2017-12-29T10:04:54.335Z,2.20
2017-12-29T10:05:56.888Z,2.47
2017-12-29T10:06:59.403Z,2.78
2017-12-29T10:08:02.676Z,2.90
2017-12-29T10:09:05.962Z,2.53
2017-12-29T10:10:09.233Z,2.37
2017-12-29T10:11:11.783Z,2.45
2017-12-29T10:12:14.296Z,2.53
2017-12-29T10:13:16.897Z,2.40
2017-12-29T10:14:19.448Z,1.70
2017-12-29T10:15:21.964Z,2.22
2017-12-29T10:16:24.535Z,3.00
2017-12-29T10:17:27.826Z,2.15
2017-12-29T10:18:31.141Z,2.90
2017-12-29T10:19:33.660Z,1.98
2017-12-29T10:20:36.178Z,2.60
2017-12-29T10:21:38.696Z,2.25
2017-12-29T10:22:41.247Z,2.35
2017-12-29T10:23:43.758Z,2.40
2017-12-29T10:24:46.273Z,2.62
2017-12-29T10:25:48.780Z,2.70
2017-12-29T10:26:52.082Z,1.92
2017-12-29T10:27:54.624Z,2.00
2017-12-29T10:28:57.905Z,2.22
2017-12-29T10:30:01.178Z,1.52
2017-12-29T10:31:04.464Z,1.80
2017-12-29T10:32:07.744Z,1.50
2017-12-29T10:33:10.280Z,2.12
2017-12-29T10:34:12.789Z,2.50
2017-12-29T10:35:16.066Z,1.85
2017-12-29T10:36:19.383Z,1.92
2017-12-29T10:37:21.928Z,2.22
2017-12-29T10:38:25.214Z,1.80
2017-12-29T10:39:28.534Z,1.80
2017-12-29T10:40:31.082Z,1.90
2017-12-29T10:41:33.620Z,1.73
2017-12-29T10:42:36.924Z,1.80
2017-12-29T10:43:39.437Z,2.03
2017-12-29T10:44:41.949Z,1.70
2017-12-29T10:45:45.350Z,1.62
2017-12-29T10:46:47.900Z,2.25
2017-12-29T10:47:51.185Z,1.65
2017-12-29T10:48:54.512Z,1.90
2017-12-29T10:49:57.074Z,1.90
2017-12-29T10:50:59.614Z,2.10
2017-12-29T10:52:02.183Z,2.05
2017-12-29T10:53:04.700Z,2.25
2017-12-29T10:54:07.209Z,2.15
2017-12-29T10:55:09.717Z,2.10
2017-12-29T10:56:12.264Z,1.90
2017-12-29T10:57:14.772Z,2.33
2017-12-29T10:58:17.292Z,3.03
2017-12-29T10:59:19.863Z,2.65
2017-12-29T11:00:22.367Z,2.87
2017-12-29T11:01:24.912Z,2.53
2017-12-29T11:02:27.433Z,2.75
2017-12-29T11:03:29.971Z,2.60
2017-12-29T11:04:32.505Z,2.65
2017-12-29T11:05:35.084Z,2.50
2017-12-29T11:06:37.600Z,2.15
2017-12-29T11:07:40.108Z,2.50
2017-12-29T11:08:42.624Z,2.30
2017-12-29T11:09:45.164Z,2.10
2017-12-29T11:10:47.771Z,2.25
2017-12-29T11:11:50.293Z,2.53
2017-12-29T11:12:52.830Z,2.60
2017-12-29T11:13:55.370Z,2.33
2017-12-29T11:14:57.889Z,2.28
2017-12-29T11:16:00.435Z,2.10
2017-12-29T11:17:02.993Z,2.60
2017-12-29T11:18:05.508Z,2.10
2017-12-29T11:19:08.780Z,2.17
2017-12-29T11:20:11.298Z,2.70
2017-12-29T11:21:13.812Z,1.67
2017-12-29T11:22:17.128Z,2.35
2017-12-29T11:23:19.648Z,2.78
2017-12-29T11:24:22.173Z,2.60
2017-12-29T11:25:24.710Z,2.10
2017-12-29T11:26:27.987Z,2.50
2017-12-29T11:27:31.337Z,2.10
2017-12-29T11:28:33.872Z,2.15
2017-12-29T11:29:36.557Z,2.33
2017-12-29T11:30:39.078Z,2.78
2017-12-29T11:31:42.361Z,2.67
2017-12-29T11:32:45.669Z,2.45
2017-12-29T11:33:48.185Z,2.70
2017-12-29T11:34:50.751Z,2.50
2017-12-29T11:35:53.262Z,2.28
2017-12-29T11:36:55.781Z,2.80
2017-12-29T11:37:58.295Z,2.60
2017-12-29T11:39:00.874Z,3.03
2017-12-29T11:40:03.404Z,2.40
2017-12-29T11:41:06.686Z,2.42
2017-12-29T11:42:09.965Z,2.90
2017-12-29T11:43:13.290Z,2.72
2017-12-29T11:44:15.806Z,2.78
2017-12-29T11:45:18.312Z,2.10
2017-12-29T11:46:20.825Z,2.50
2017-12-29T11:47:23.337Z,2.45
2017-12-29T11:48:25.881Z,2.60
2017-12-29T11:49:29.152Z,2.92
2017-12-29T11:50:31.683Z,2.10
2017-12-29T11:51:34.184Z,2.65
2017-12-29T11:52:36.741Z,2.60
2017-12-29T11:53:39.322Z,2.45
2017-12-29T11:54:42.605Z,2.35
2017-12-29T11:55:45.972Z,2.12
2017-12-29T11:56:48.485Z,2.55
2017-12-29T11:57:51.005Z,2.60
2017-12-29T11:58:53.562Z,3.12
2017-12-29T11:59:56.076Z,2.22
2017-12-29T12:00:58.593Z,2.60
2017-12-29T12:02:01.258Z,3.17
2017-12-29T12:03:04.528Z,2.70
2017-12-29T12:04:07.074Z,2.85
2017-12-29T12:05:09.585Z,2.30
2017-12-29T12:06:12.132Z,3.30
2017-12-29T12:07:14.645Z,2.83
2017-12-29T12:08:17.921Z,2.72
2017-12-29T12:09:21.234Z,2.28
2017-12-29T12:10:23.744Z,2.58
2017-12-29T12:11:26.257Z,2.80
2017-12-29T12:12:28.803Z,2.37
2017-12-29T12:13:32.085Z,2.42
2017-12-29T12:14:35.369Z,2.40
2017-12-29T12:15:38.654Z,2.65
2017-12-29T12:16:41.928Z,2.40
2017-12-29T12:17:44.477Z,2.62
2017-12-29T12:18:46.992Z,2.47
2017-12-29T12:19:49.548Z,2.08
2017-12-29T12:20:52.060Z,2.28
2017-12-29T12:21:54.587Z,2.42
2017-12-29T12:22:57.108Z,2.05
2017-12-29T12:23:59.616Z,2.40
2017-12-29T12:25:02.163Z,2.33
2017-12-29T12:26:05.449Z,2.40
2017-12-29T12:27:08.725Z,2.30
2017-12-29T12:28:11.249Z,2.45
2017-12-29T12:29:13.765Z,2.45
2017-12-29T12:30:17.081Z,2.80
2017-12-29T12:31:19.590Z,2.70
2017-12-29T12:32:22.100Z,2.85
2017-12-29T12:33:24.653Z,2.60
2017-12-29T12:34:27.937Z,2.50
2017-12-29T12:35:31.276Z,2.40
2017-12-29T12:36:33.795Z,3.10
2017-12-29T12:37:37.113Z,2.35
2017-12-29T12:38:39.623Z,2.35
2017-12-29T12:39:42.129Z,2.65
2017-12-29T12:40:44.647Z,2.25
2017-12-29T12:41:47.157Z,2.40
2017-12-29T12:42:49.719Z,2.78
2017-12-29T12:43:52.240Z,2.53
2017-12-29T12:44:54.749Z,3.03
2017-12-29T12:45:57.264Z,3.40
2017-12-29T12:46:59.778Z,2.45
2017-12-29T12:48:02.330Z,2.65
2017-12-29T12:49:05.612Z,2.42
2017-12-29T12:50:08.888Z,2.67
2017-12-29T12:51:12.175Z,2.45
2017-12-29T12:52:15.449Z,3.00
2017-12-29T12:53:18.001Z,2.30
2017-12-29T12:54:20.573Z,2.60
2017-12-29T12:55:23.091Z,2.78
2017-12-29T12:56:25.602Z,2.30
2017-12-29T12:57:28.132Z,2.50
2017-12-29T12:58:30.646Z,2.55
2017-12-29T12:59:33.236Z,2.75
2017-12-29T13:00:35.757Z,2.62
2017-12-29T13:01:38.264Z,2.47
2017-12-29T13:02:40.780Z,2.15
2017-12-29T13:03:43.323Z,2.58
2017-12-29T13:04:45.835Z,2.20
2017-12-29T13:05:48.353Z,2.53
2017-12-29T13:06:50.868Z,2.10
2017-12-29T13:07:54.193Z,2.65
2017-12-29T13:08:56.713Z,2.80
2017-12-29T13:09:59.234Z,2.10
2017-12-29T13:11:01.754Z,2.22
2017-12-29T13:12:05.043Z,2.20
2017-12-29T13:13:08.381Z,2.53
2017-12-29T13:14:10.902Z,3.00
2017-12-29T13:15:14.194Z,3.40
2017-12-29T13:16:16.717Z,3.25
2017-12-29T13:17:19.229Z,2.20
2017-12-29T13:18:21.771Z,3.17
2017-12-29T13:19:24.284Z,2.50
2017-12-29T13:20:26.813Z,1.92
2017-12-29T13:21:30.097Z,2.42
2017-12-29T13:22:33.393Z,1.58
2017-12-29T13:23:35.950Z,1.90
2017-12-29T13:24:39.415Z,1.90
2017-12-29T13:25:41.933Z,2.37
2017-12-29T13:26:44.448Z,2.17
2017-12-29T13:27:46.957Z,2.58
2017-12-29T13:28:49.501Z,2.65
2017-12-29T13:29:52.769Z,2.40
2017-12-29T13:30:55.317Z,2.70
2017-12-29T13:31:57.828Z,2.00
2017-12-29T13:33:00.336Z,1.83
2017-12-29T13:34:02.970Z,2.00
2017-12-29T13:35:05.481Z,1.90
2017-12-29T13:36:07.995Z,2.03
2017-12-29T13:37:10.504Z,2.50
2017-12-29T13:38:13.041Z,2.10
2017-12-29T13:39:15.601Z,2.00
2017-12-29T13:40:18.144Z,1.83
2017-12-29T13:41:21.448Z,2.20
2017-12-29T13:42:23.956Z,2.10
2017-12-29T13:43:26.464Z,1.80
2017-12-29T13:44:29.736Z,2.00
2017-12-29T13:45:33.749Z,1.95
2017-12-29T13:46:36.295Z,1.52
2017-12-29T13:47:38.804Z,1.75
2017-12-29T13:48:41.317Z,2.47
2017-12-29T13:49:44.030Z,1.80
2017-12-29T13:50:46.582Z,1.50
2017-12-29T13:51:49.108Z,1.77
2017-12-29T13:52:51.626Z,1.52
2017-12-29T13:53:54.145Z,1.83
2017-12-29T13:54:56.659Z,1.83
2017-12-29T13:55:59.200Z,1.60
2017-12-29T13:57:01.734Z,1.50
2017-12-29T13:58:04.248Z,1.50
2017-12-29T13:59:06.765Z,1.83
2017-12-29T14:00:09.313Z,1.70